Time;durP1;ratioP1;P1;durP2;ratioP2;P2;SDS_P1;SDS_P2;PMS_P1;PMS_P2;Temp;Humidity;BMP_temperature;BMP_pressure;BME280_temperature;BME280_humidity;BME280_pressure;Samples;Min_cycle;Max_cycle;Signal;HPM_P1;HPM_P2
2023/09/06 00:00:43;;;;;;;5.30;2.85;;;;;;;;;;4921734;29;20489;-82
2023/09/06 00:03:13;;;;;;;6.38;3.30;;;;;;;;;;4916537;29;20058;-82
2023/09/06 00:05:42;;;;;;;6.00;3.28;;;;;;;;;;4919651;29;20044;-82
2023/09/06 00:08:12;;;;;;;6.32;2.90;;;;;;;;;;4918937;29;20040;-82
2023/09/06 00:10:40;;;;;;;5.32;3.00;;;;;;;;;;4920122;29;20048;-81
2023/09/06 00:13:09;;;;;;;5.28;3.22;;;;;;;;;;4921994;29;20047;-81
2023/09/06 00:15:37;;;;;;;8.88;3.50;;;;;;;;;;4925409;29;20072;-81
2023/09/06 00:18:07;;;;;;;8.13;3.60;;;;;;;;;;4924511;29;20040;-82
2023/09/06 00:20:38;;;;;;;11.43;4.07;;;;;;;;;;4923232;29;20116;-81
2023/09/06 00:23:08;;;;;;;10.27;4.15;;;;;;;;;;4925571;29;20048;-81
2023/09/06 00:25:38;;;;;;;11.82;4.40;;;;;;;;;;4925136;29;20053;-81
2023/09/06 00:28:06;;;;;;;7.10;3.55;;;;;;;;;;4920188;29;20430;-81
2023/09/06 00:30:35;;;;;;;5.93;3.53;;;;;;;;;;4924370;29;20062;-81
2023/09/06 00:33:05;;;;;;;5.78;3.40;;;;;;;;;;4924651;29;20052;-81
2023/09/06 00:35:34;;;;;;;6.47;3.28;;;;;;;;;;4923008;29;20079;-82
2023/09/06 00:38:06;;;;;;;5.80;3.30;;;;;;;;;;4925865;29;20501;-82
2023/09/06 00:40:37;;;;;;;5.07;3.05;;;;;;;;;;4924053;29;20810;-82
2023/09/06 00:43:06;;;;;;;3.65;2.20;;;;;;;;;;4923726;29;20044;-82
2023/09/06 00:45:39;;;;;;;6.30;3.05;;;;;;;;;;4926527;29;20039;-82
2023/09/06 00:48:08;;;;;;;5.07;3.22;;;;;;;;;;4927262;29;20581;-81
2023/09/06 00:50:37;;;;;;;5.05;3.05;;;;;;;;;;4923166;29;20047;-82
2023/09/06 00:53:07;;;;;;;5.88;3.28;;;;;;;;;;4927961;29;20450;-82
2023/09/06 00:55:37;;;;;;;5.57;2.97;;;;;;;;;;4929984;29;20126;-82
2023/09/06 00:58:06;;;;;;;5.93;3.40;;;;;;;;;;4926600;29;20043;-82
2023/09/06 01:00:35;;;;;;;6.32;3.13;;;;;;;;;;4926375;29;20050;-82
2023/09/06 01:03:04;;;;;;;7.47;3.47;;;;;;;;;;4928682;29;20079;-81
2023/09/06 01:05:40;;;;;;;6.47;3.45;;;;;;;;;;4930239;29;20142;-81
2023/09/06 01:08:12;;;;;;;6.18;2.92;;;;;;;;;;4927116;29;20079;-81
2023/09/06 01:10:40;;;;;;;4.43;2.63;;;;;;;;;;4926882;29;20142;-82
2023/09/06 01:13:09;;;;;;;7.25;3.17;;;;;;;;;;4926432;29;20054;-82
2023/09/06 01:15:38;;;;;;;7.25;3.47;;;;;;;;;;4924990;29;20048;-82
2023/09/06 01:18:08;;;;;;;6.18;3.20;;;;;;;;;;4924429;29;20361;-81
2023/09/06 01:20:41;;;;;;;4.97;2.80;;;;;;;;;;4923900;29;20044;-81
2023/09/06 01:23:16;;;;;;;5.70;3.33;;;;;;;;;;4925044;29;20134;-82
2023/09/06 01:25:46;;;;;;;9.90;3.28;;;;;;;;;;4928073;29;20493;-82
2023/09/06 01:28:15;;;;;;;5.90;3.10;;;;;;;;;;4927718;29;20083;-82
2023/09/06 01:30:43;;;;;;;5.30;3.20;;;;;;;;;;4927268;29;20064;-82
2023/09/06 01:33:13;;;;;;;7.05;3.25;;;;;;;;;;4927650;29;20056;-82
2023/09/06 01:35:42;;;;;;;6.85;3.55;;;;;;;;;;4923516;29;20156;-82
2023/09/06 01:38:11;;;;;;;5.18;3.28;;;;;;;;;;4926230;29;20055;-82
2023/09/06 01:40:40;;;;;;;6.75;3.40;;;;;;;;;;4927121;29;20071;-82
2023/09/06 01:43:09;;;;;;;8.85;3.70;;;;;;;;;;4926695;29;20099;-81
2023/09/06 01:45:38;;;;;;;8.70;3.53;;;;;;;;;;4926615;29;20051;-81
2023/09/06 01:48:07;;;;;;;9.25;3.85;;;;;;;;;;4923835;29;20052;-81
2023/09/06 01:50:36;;;;;;;6.45;3.28;;;;;;;;;;4928054;29;20107;-82
2023/09/06 01:53:04;;;;;;;8.57;3.90;;;;;;;;;;4929638;29;20062;-82
2023/09/06 01:55:33;;;;;;;6.45;3.67;;;;;;;;;;4925829;29;20434;-81
2023/09/06 01:58:03;;;;;;;7.20;3.42;;;;;;;;;;4927729;29;20497;-81
2023/09/06 02:00:36;;;;;;;7.88;3.60;;;;;;;;;;4923280;29;20095;-81
2023/09/06 02:03:05;;;;;;;6.03;3.42;;;;;;;;;;4927163;29;20537;-81
2023/09/06 02:05:34;;;;;;;8.00;3.63;;;;;;;;;;4924960;29;20043;-81
2023/09/06 02:08:04;;;;;;;8.95;4.00;;;;;;;;;;4926172;29;20055;-81
2023/09/06 02:10:32;;;;;;;8.30;4.22;;;;;;;;;;4926745;29;20102;-81
2023/09/06 02:13:01;;;;;;;7.35;3.80;;;;;;;;;;4928346;29;20047;-81
2023/09/06 02:15:30;;;;;;;9.63;4.00;;;;;;;;;;4926544;29;20142;-81
2023/09/06 02:18:02;;;;;;;9.38;3.90;;;;;;;;;;4927561;29;20506;-81
2023/09/06 02:20:31;;;;;;;9.73;4.13;;;;;;;;;;4925863;29;20047;-81
2023/09/06 02:22:59;;;;;;;7.35;3.53;;;;;;;;;;4927841;29;20063;-81
2023/09/06 02:25:30;;;;;;;9.20;3.88;;;;;;;;;;4924931;29;20493;-82
2023/09/06 02:28:05;;;;;;;10.05;3.72;;;;;;;;;;4927153;29;20055;-82
2023/09/06 02:30:37;;;;;;;10.85;3.63;;;;;;;;;;4923012;29;20075;-81
2023/09/06 02:33:10;;;;;;;6.25;3.47;;;;;;;;;;4926971;29;20062;-82
2023/09/06 02:35:40;;;;;;;7.43;3.55;;;;;;;;;;4925469;29;20494;-82
2023/09/06 02:38:09;;;;;;;6.07;3.83;;;;;;;;;;4927808;29;20052;-82
2023/09/06 02:40:40;;;;;;;6.40;3.30;;;;;;;;;;4927125;29;20044;-81
2023/09/06 02:43:10;;;;;;;5.68;3.05;;;;;;;;;;4925892;29;20051;-82
2023/09/06 02:45:39;;;;;;;5.53;3.20;;;;;;;;;;4925466;29;20337;-82
2023/09/06 02:48:12;;;;;;;6.45;3.03;;;;;;;;;;4927121;29;20048;-82
2023/09/06 02:50:40;;;;;;;7.72;2.90;;;;;;;;;;4922785;29;20056;-82
2023/09/06 02:53:19;;;;;;;4.60;2.72;;;;;;;;;;4927784;29;20134;-82
2023/09/06 02:55:51;;;;;;;6.30;3.30;;;;;;;;;;4927190;29;20332;-82
2023/09/06 02:58:23;;;;;;;7.43;3.20;;;;;;;;;;4925112;29;20056;-83
2023/09/06 03:00:57;;;;;;;6.03;2.50;;;;;;;;;;4918590;29;20047;-83
2023/09/06 03:03:28;;;;;;;4.80;2.97;;;;;;;;;;4919864;29;20567;-83
2023/09/06 03:05:57;;;;;;;8.63;2.80;;;;;;;;;;4923406;29;20130;-82
2023/09/06 03:08:27;;;;;;;5.53;3.00;;;;;;;;;;4926692;29;20047;-82
2023/09/06 03:10:58;;;;;;;6.50;2.95;;;;;;;;;;4923864;29;20071;-82
2023/09/06 03:13:28;;;;;;;5.75;3.08;;;;;;;;;;4928063;29;20052;-83
2023/09/06 03:15:59;;;;;;;6.38;3.05;;;;;;;;;;4905688;29;20047;-83
2023/09/06 03:18:30;;;;;;;7.88;3.28;;;;;;;;;;4925557;29;20184;-83
2023/09/06 03:21:04;;;;;;;5.85;2.92;;;;;;;;;;4922362;29;20056;-82
2023/09/06 03:23:33;;;;;;;6.00;3.28;;;;;;;;;;4924709;29;20111;-82
2023/09/06 03:26:02;;;;;;;6.55;3.05;;;;;;;;;;4926045;29;20069;-83
2023/09/06 03:28:31;;;;;;;6.32;3.53;;;;;;;;;;4926640;29;20052;-82
2023/09/06 03:31:00;;;;;;;5.57;3.22;;;;;;;;;;4918714;29;20060;-82
2023/09/06 03:33:31;;;;;;;6.90;3.85;;;;;;;;;;4919904;29;20068;-83
2023/09/06 03:35:59;;;;;;;6.13;3.65;;;;;;;;;;4925495;29;20044;-83
2023/09/06 03:38:28;;;;;;;8.18;4.00;;;;;;;;;;4927451;29;20039;-82
2023/09/06 03:41:01;;;;;;;5.97;3.35;;;;;;;;;;4925138;29;20425;-82
2023/09/06 03:43:32;;;;;;;8.52;3.70;;;;;;;;;;4923078;29;20055;-82
2023/09/06 03:46:04;;;;;;;5.57;3.38;;;;;;;;;;4922481;29;20047;-82
2023/09/06 03:48:35;;;;;;;8.40;3.20;;;;;;;;;;4920142;29;20048;-82
2023/09/06 03:51:04;;;;;;;7.80;3.60;;;;;;;;;;4922143;29;20055;-82
2023/09/06 03:53:37;;;;;;;6.93;3.50;;;;;;;;;;4926984;29;20568;-83
2023/09/06 03:56:06;;;;;;;6.53;3.40;;;;;;;;;;4924897;29;20150;-83
2023/09/06 03:58:35;;;;;;;6.03;3.70;;;;;;;;;;4921018;29;20040;-82
2023/09/06 04:01:04;;;;;;;9.38;3.83;;;;;;;;;;4921206;29;20103;-82
2023/09/06 04:03:38;;;;;;;6.97;3.58;;;;;;;;;;4923546;29;20051;-82
2023/09/06 04:06:07;;;;;;;7.88;3.88;;;;;;;;;;4922550;29;20053;-82
2023/09/06 04:08:36;;;;;;;7.10;3.33;;;;;;;;;;4922937;29;20040;-83
2023/09/06 04:11:05;;;;;;;9.43;4.15;;;;;;;;;;4922009;29;20060;-83
2023/09/06 04:13:34;;;;;;;6.20;3.30;;;;;;;;;;4925078;29;20745;-83
2023/09/06 04:16:05;;;;;;;6.25;3.50;;;;;;;;;;4922441;29;20454;-82
2023/09/06 04:18:35;;;;;;;8.70;3.85;;;;;;;;;;4925486;29;20058;-83
2023/09/06 04:21:08;;;;;;;7.82;3.92;;;;;;;;;;4925361;29;20058;-83
2023/09/06 04:23:39;;;;;;;7.85;3.90;;;;;;;;;;4927568;29;20060;-83
2023/09/06 04:26:07;;;;;;;7.20;3.72;;;;;;;;;;4927886;29;20490;-83
2023/09/06 04:28:36;;;;;;;6.60;3.08;;;;;;;;;;4927790;29;20520;-83
2023/09/06 04:31:06;;;;;;;6.95;3.42;;;;;;;;;;4926254;29;20445;-83
2023/09/06 04:33:36;;;;;;;5.88;3.00;;;;;;;;;;4928365;29;20058;-82
2023/09/06 04:36:04;;;;;;;6.65;3.42;;;;;;;;;;4924611;29;20467;-83
2023/09/06 04:38:33;;;;;;;5.72;3.00;;;;;;;;;;4926045;29;20064;-83
2023/09/06 04:41:02;;;;;;;8.27;3.33;;;;;;;;;;4928827;29;20365;-82
2023/09/06 04:43:30;;;;;;;7.72;3.38;;;;;;;;;;4928438;29;20055;-83
2023/09/06 04:45:59;;;;;;;7.50;3.30;;;;;;;;;;4925696;29;20103;-83
2023/09/06 04:48:28;;;;;;;6.75;3.75;;;;;;;;;;4926405;29;20454;-83
2023/09/06 04:50:59;;;;;;;7.00;3.55;;;;;;;;;;4924969;29;20059;-83
2023/09/06 04:53:28;;;;;;;8.45;3.75;;;;;;;;;;4925103;29;20115;-84
2023/09/06 04:55:56;;;;;;;6.00;3.60;;;;;;;;;;4926872;29;20151;-83
2023/09/06 04:58:25;;;;;;;6.88;3.80;;;;;;;;;;4926357;29;20119;-81
2023/09/06 05:00:55;;;;;;;5.72;3.22;;;;;;;;;;4926223;29;20531;-82
2023/09/06 05:03:23;;;;;;;8.55;3.50;;;;;;;;;;4925595;29;20428;-82
2023/09/06 05:05:52;;;;;;;6.30;3.45;;;;;;;;;;4926347;29;20478;-82
2023/09/06 05:08:22;;;;;;;6.03;3.63;;;;;;;;;;4927204;29;20056;-82
2023/09/06 05:10:52;;;;;;;5.07;3.00;;;;;;;;;;4922259;29;20060;-82
2023/09/06 05:13:20;;;;;;;6.00;3.28;;;;;;;;;;4925045;29;20040;-82
2023/09/06 05:15:48;;;;;;;9.02;3.28;;;;;;;;;;4920940;29;20054;-83
2023/09/06 05:18:17;;;;;;;6.93;3.08;;;;;;;;;;4926199;29;20051;-83
2023/09/06 05:20:45;;;;;;;6.53;4.03;;;;;;;;;;4925963;29;20051;-83
2023/09/06 05:23:14;;;;;;;5.35;3.35;;;;;;;;;;4925874;29;20129;-83
2023/09/06 05:25:44;;;;;;;8.25;3.40;;;;;;;;;;4925078;29;20146;-83
2023/09/06 05:28:14;;;;;;;6.43;3.30;;;;;;;;;;4926428;29;20048;-83
2023/09/06 05:30:44;;;;;;;8.73;3.95;;;;;;;;;;4926042;29;20051;-83
2023/09/06 05:33:13;;;;;;;9.77;4.00;;;;;;;;;;4923670;29;20071;-83
2023/09/06 05:35:42;;;;;;;7.00;3.63;;;;;;;;;;4926803;29;20139;-83
2023/09/06 05:38:10;;;;;;;8.57;3.80;;;;;;;;;;4926538;29;20364;-83
2023/09/06 05:40:43;;;;;;;7.20;3.80;;;;;;;;;;4926530;29;20070;-84
2023/09/06 05:43:14;;;;;;;11.35;4.18;;;;;;;;;;4924765;29;20644;-85
2023/09/06 05:45:43;;;;;;;7.13;3.97;;;;;;;;;;4923563;29;20489;-87
2023/09/06 05:48:11;;;;;;;9.30;3.80;;;;;;;;;;4927712;29;20040;-87
2023/09/06 05:50:40;;;;;;;10.75;3.90;;;;;;;;;;4925447;29;20474;-86
2023/09/06 05:53:09;;;;;;;7.68;3.88;;;;;;;;;;4924869;29;20396;-87
2023/09/06 05:55:38;;;;;;;8.23;4.18;;;;;;;;;;4927857;29;20079;-87
2023/09/06 05:58:06;;;;;;;8.77;3.70;;;;;;;;;;4925078;29;20135;-86
2023/09/06 06:00:36;;;;;;;10.07;3.78;;;;;;;;;;4923931;29;20062;-87
2023/09/06 06:03:05;;;;;;;6.43;3.60;;;;;;;;;;4929072;29;20062;-87
2023/09/06 06:05:33;;;;;;;8.82;3.95;;;;;;;;;;4925741;29;20506;-87
2023/09/06 06:08:02;;;;;;;11.15;3.65;;;;;;;;;;4926912;29;20047;-87
2023/09/06 06:10:34;;;;;;;11.07;3.38;;;;;;;;;;4927182;29;20099;-86
2023/09/06 06:13:04;;;;;;;9.27;4.10;;;;;;;;;;4926947;29;20405;-86
2023/09/06 06:15:34;;;;;;;9.73;3.72;;;;;;;;;;4926130;29;20051;-87
2023/09/06 06:18:05;;;;;;;9.85;3.95;;;;;;;;;;4921141;29;20409;-87
2023/09/06 06:20:36;;;;;;;7.50;4.22;;;;;;;;;;4925203;29;20444;-87
2023/09/06 06:23:12;;;;;;;10.73;4.82;;;;;;;;;;4925743;29;20051;-87
2023/09/06 06:25:40;;;;;;;11.18;5.50;;;;;;;;;;4927824;29;20054;-88
2023/09/06 06:28:09;;;;;;;10.95;4.60;;;;;;;;;;4927162;29;20055;-89
2023/09/06 06:30:38;;;;;;;15.00;5.32;;;;;;;;;;4924602;29;20052;-92
2023/09/06 06:33:08;;;;;;;11.07;5.15;;;;;;;;;;4926511;29;21839;-89
2023/09/06 06:35:38;;;;;;;10.27;5.35;;;;;;;;;;4925441;29;21453;-88
2023/09/06 06:38:07;;;;;;;12.02;5.93;;;;;;;;;;4927072;29;20102;-88
2023/09/06 06:40:37;;;;;;;8.98;4.82;;;;;;;;;;4925170;29;20051;-87
2023/09/06 06:43:06;;;;;;;10.70;6.13;;;;;;;;;;4926980;29;20051;-88
2023/09/06 06:45:35;;;;;;;9.68;5.50;;;;;;;;;;4924138;29;20052;-86
2023/09/06 06:48:04;;;;;;;10.13;4.85;;;;;;;;;;4925052;29;20490;-87
2023/09/06 06:50:35;;;;;;;12.27;5.18;;;;;;;;;;4925512;29;20137;-87
2023/09/06 06:53:03;;;;;;;12.25;4.95;;;;;;;;;;4925794;29;20047;-86
2023/09/06 06:55:33;;;;;;;10.90;4.45;;;;;;;;;;4928036;29;20063;-86
2023/09/06 06:58:02;;;;;;;8.27;4.78;;;;;;;;;;4926846;29;20044;-86
2023/09/06 07:00:31;;;;;;;20.88;5.13;;;;;;;;;;4923898;29;20105;-86
2023/09/06 07:03:03;;;;;;;8.68;4.45;;;;;;;;;;4922387;29;20047;-86
2023/09/06 07:05:32;;;;;;;11.38;5.57;;;;;;;;;;4927438;29;20079;-86
2023/09/06 07:08:04;;;;;;;10.13;5.20;;;;;;;;;;4924893;29;20052;-85
2023/09/06 07:10:33;;;;;;;9.43;4.88;;;;;;;;;;4922806;29;20402;-85
2023/09/06 07:13:01;;;;;;;12.45;5.13;;;;;;;;;;4923250;29;20102;-86
2023/09/06 07:15:30;;;;;;;10.65;5.15;;;;;;;;;;4924961;29;20052;-85
2023/09/06 07:18:01;;;;;;;10.18;4.72;;;;;;;;;;4924909;29;20044;-85
2023/09/06 07:20:30;;;;;;;7.93;5.32;;;;;;;;;;4922142;29;20059;-85
2023/09/06 07:22:58;;;;;;;9.65;4.43;;;;;;;;;;4921723;29;20477;-86
2023/09/06 07:25:28;;;;;;;9.25;5.00;;;;;;;;;;4925504;29;20130;-85
2023/09/06 07:27:59;;;;;;;8.45;4.95;;;;;;;;;;4925306;29;20052;-85
2023/09/06 07:30:27;;;;;;;10.75;5.30;;;;;;;;;;4924975;29;20048;-86
2023/09/06 07:32:56;;;;;;;8.15;5.57;;;;;;;;;;4924207;29;20118;-87
2023/09/06 07:35:24;;;;;;;10.77;5.38;;;;;;;;;;4922852;29;20054;-86
2023/09/06 07:37:53;;;;;;;9.52;4.70;;;;;;;;;;4923150;29;20531;-87
2023/09/06 07:40:21;;;;;;;9.77;5.20;;;;;;;;;;4922847;29;20070;-88
2023/09/06 07:42:51;;;;;;;9.65;4.80;;;;;;;;;;4920930;29;20051;-88
2023/09/06 07:45:20;;;;;;;11.10;5.53;;;;;;;;;;4922049;29;20055;-87
2023/09/06 07:47:48;;;;;;;10.45;4.75;;;;;;;;;;4921736;29;20521;-88
2023/09/06 07:50:17;;;;;;;10.02;5.07;;;;;;;;;;4920737;29;20051;-88
2023/09/06 07:52:46;;;;;;;7.15;4.47;;;;;;;;;;4918852;29;20490;-88
2023/09/06 07:55:14;;;;;;;8.68;5.00;;;;;;;;;;4921540;29;20048;-88
2023/09/06 07:57:43;;;;;;;9.35;4.90;;;;;;;;;;4920568;29;20678;-89
2023/09/06 08:00:14;;;;;;;9.90;4.47;;;;;;;;;;4920887;29;20039;-89
2023/09/06 08:02:42;;;;;;;9.82;4.28;;;;;;;;;;4920104;29;20106;-90
2023/09/06 08:05:11;;;;;;;10.13;4.90;;;;;;;;;;4922661;29;20050;-88
2023/09/06 08:07:41;;;;;;;9.98;4.97;;;;;;;;;;4922650;29;20123;-88
2023/09/06 08:10:11;;;;;;;10.15;4.85;;;;;;;;;;4923224;29;20493;-88
2023/09/06 08:12:41;;;;;;;7.25;4.45;;;;;;;;;;4923794;29;20064;-88
2023/09/06 08:15:09;;;;;;;8.75;4.28;;;;;;;;;;4923309;29;20036;-89
2023/09/06 08:17:39;;;;;;;10.57;4.60;;;;;;;;;;4921116;29;20174;-88
2023/09/06 08:20:12;;;;;;;8.65;4.47;;;;;;;;;;4925301;29;20047;-89
2023/09/06 08:22:41;;;;;;;9.57;4.28;;;;;;;;;;4923922;29;20473;-89
2023/09/06 08:25:13;;;;;;;9.23;4.53;;;;;;;;;;4923321;29;20047;-89
2023/09/06 08:27:41;;;;;;;8.13;4.75;;;;;;;;;;4923085;29;20545;-88
2023/09/06 08:30:11;;;;;;;7.15;4.18;;;;;;;;;;4924572;29;20047;-88
2023/09/06 08:32:42;;;;;;;6.72;4.10;;;;;;;;;;4921055;29;20306;-90
2023/09/06 08:35:12;;;;;;;7.15;3.70;;;;;;;;;;4924316;29;20138;-88
2023/09/06 08:37:41;;;;;;;8.88;4.75;;;;;;;;;;4921338;29;20055;-88
2023/09/06 08:40:10;;;;;;;8.65;4.30;;;;;;;;;;4922848;29;20480;-89
2023/09/06 08:42:39;;;;;;;9.75;4.88;;;;;;;;;;4922590;29;20079;-88
2023/09/06 08:45:09;;;;;;;9.43;3.97;;;;;;;;;;4918756;29;20569;-88
2023/09/06 08:47:39;;;;;;;7.35;3.85;;;;;;;;;;4924835;29;20070;-87
2023/09/06 08:50:10;;;;;;;6.47;3.75;;;;;;;;;;4921886;29;20046;-89
2023/09/06 08:52:43;;;;;;;8.77;4.03;;;;;;;;;;4921628;29;20136;-89
2023/09/06 08:55:11;;;;;;;10.70;3.50;;;;;;;;;;4922302;29;20044;-88
2023/09/06 08:57:40;;;;;;;16.45;4.38;;;;;;;;;;4924301;29;20046;-91
2023/09/06 09:00:10;;;;;;;6.65;4.25;;;;;;;;;;4920445;29;20130;-87
2023/09/06 09:02:40;;;;;;;6.85;4.22;;;;;;;;;;4922394;29;20059;-88
2023/09/06 09:05:12;;;;;;;8.23;4.47;;;;;;;;;;4925272;29;20436;-87
2023/09/06 09:07:49;;;;;;;6.72;4.20;;;;;;;;;;4923357;29;20051;-87
2023/09/06 09:10:20;;;;;;;6.22;3.67;;;;;;;;;;4923939;29;20469;-88
2023/09/06 09:12:49;;;;;;;7.25;4.05;;;;;;;;;;4926947;29;20456;-89
2023/09/06 09:15:21;;;;;;;6.28;3.60;;;;;;;;;;4929271;29;20496;-89
2023/09/06 09:17:52;;;;;;;5.87;3.37;;;;;;;;;;4926046;29;20052;-89
2023/09/06 09:20:34;;;;;;;7.75;3.97;;;;;;;;;;4925079;29;20048;-90
2023/09/06 09:23:03;;;;;;;5.80;3.88;;;;;;;;;;4927265;29;20075;-90
2023/09/06 09:25:35;;;;;;;6.50;3.75;;;;;;;;;;4926930;29;20563;-89
2023/09/06 09:28:04;;;;;;;6.22;4.10;;;;;;;;;;4925253;29;20044;-89
2023/09/06 09:30:33;;;;;;;8.07;4.00;;;;;;;;;;4924297;29;20055;-89
2023/09/06 09:33:03;;;;;;;8.73;3.88;;;;;;;;;;4930757;29;20056;-88
2023/09/06 09:35:35;;;;;;;8.93;4.20;;;;;;;;;;4933262;29;20386;-89
2023/09/06 09:38:06;;;;;;;5.60;3.88;;;;;;;;;;4928740;29;20048;-91
2023/09/06 09:40:34;;;;;;;9.30;3.60;;;;;;;;;;4928484;29;20059;-94
2023/09/06 09:43:05;;;;;;;6.45;3.60;;;;;;;;;;4929235;29;20580;-92
2023/09/06 09:45:40;;;;;;;5.38;3.78;;;;;;;;;;4926539;29;20075;-90
2023/09/06 09:48:09;;;;;;;;;;;;;;;;;;4925606;29;20056;-93
2023/09/06 09:50:41;;;;;;;6.20;3.90;;;;;;;;;;4924553;29;20037;-89
2023/09/06 09:53:10;;;;;;;5.85;3.50;;;;;;;;;;4926619;29;20044;-89
2023/09/06 09:55:43;;;;;;;6.10;3.70;;;;;;;;;;4923069;29;20118;-90
2023/09/06 09:58:13;;;;;;;5.93;3.88;;;;;;;;;;4922790;29;20493;-89
2023/09/06 10:00:42;;;;;;;6.95;4.30;;;;;;;;;;4926511;29;20178;-90
2023/09/06 10:03:11;;;;;;;4.95;3.33;;;;;;;;;;4924338;29;20477;-89
2023/09/06 10:05:43;;;;;;;6.82;3.85;;;;;;;;;;4925653;29;20501;-89
2023/09/06 10:08:11;;;;;;;8.70;4.68;;;;;;;;;;4926258;29;20138;-89
2023/09/06 10:10:40;;;;;;;4.28;3.25;;;;;;;;;;4921222;29;20392;-90
2023/09/06 10:13:09;;;;;;;7.20;3.97;;;;;;;;;;4925519;29;20151;-91
2023/09/06 10:15:39;;;;;;;5.72;3.85;;;;;;;;;;4922449;29;20051;-91
2023/09/06 10:18:08;;;;;;;7.63;4.00;;;;;;;;;;4927533;29;20051;-90
2023/09/06 10:20:37;;;;;;;6.90;4.78;;;;;;;;;;4923528;29;20506;-93
2023/09/06 10:23:08;;;;;;;10.88;4.03;;;;;;;;;;4921610;29;20367;-89
2023/09/06 10:25:39;;;;;;;5.38;3.72;;;;;;;;;;4926694;29;20055;-90
2023/09/06 10:28:09;;;;;;;7.35;3.85;;;;;;;;;;4924160;29;20051;-91
2023/09/06 10:30:44;;;;;;;5.13;3.25;;;;;;;;;;4922205;29;20143;-90
2023/09/06 10:33:43;;;;;;;6.85;3.58;;;;;;;;;;4925673;29;20390;-91
2023/09/06 10:36:13;;;;;;;5.10;3.38;;;;;;;;;;4923176;29;20044;-90
2023/09/06 10:38:58;;;;;;;6.03;3.83;;;;;;;;;;4928378;29;20048;-88
2023/09/06 10:41:28;;;;;;;10.68;3.47;;;;;;;;;;4931524;29;20066;-92
2023/09/06 10:44:03;;;;;;;8.30;3.45;;;;;;;;;;4927827;29;20843;-94
2023/09/06 10:46:32;;;;;;;9.93;4.18;;;;;;;;;;4930370;29;20058;-92
2023/09/06 10:49:17;;;;;;;5.47;3.40;;;;;;;;;;4932528;29;20115;-92
2023/09/06 10:51:59;;;;;;;6.07;3.50;;;;;;;;;;4930467;29;20055;-93
2023/09/06 10:54:34;;;;;;;5.22;3.50;;;;;;;;;;4930922;29;21396;-88
2023/09/06 10:57:06;;;;;;;4.78;3.22;;;;;;;;;;4926675;29;20054;-95
2023/09/06 10:59:37;;;;;;;6.55;3.65;;;;;;;;;;4929380;29;20560;-92
2023/09/06 11:02:09;;;;;;;6.65;3.45;;;;;;;;;;4931397;29;20056;-96
2023/09/06 11:04:38;;;;;;;5.05;2.92;;;;;;;;;;4930258;29;20111;-91
2023/09/06 11:07:10;;;;;;;4.57;2.90;;;;;;;;;;4935959;29;20047;-92
2023/09/06 11:09:43;;;;;;;4.60;3.00;;;;;;;;;;4931052;29;20059;-88
2023/09/06 11:12:13;;;;;;;3.72;2.63;;;;;;;;;;4935732;29;20051;-91
2023/09/06 11:14:43;;;;;;;5.47;3.13;;;;;;;;;;4930672;29;20938;-95
2023/09/06 11:17:21;;;;;;;4.07;2.85;;;;;;;;;;4924857;29;20173;-90
2023/09/06 11:19:50;;;;;;;4.50;2.75;;;;;;;;;;4923784;29;20107;-90
2023/09/06 11:22:18;;;;;;;3.47;2.40;;;;;;;;;;4927050;29;20047;-90
2023/09/06 11:24:48;;;;;;;4.43;3.00;;;;;;;;;;4924655;29;20413;-92
2023/09/06 11:27:19;;;;;;;4.75;3.08;;;;;;;;;;4930359;29;20047;-89
2023/09/06 11:29:49;;;;;;;6.82;2.80;;;;;;;;;;4922490;29;20496;-87
2023/09/06 11:32:18;;;;;;;4.13;2.85;;;;;;;;;;4924807;29;20768;-92
2023/09/06 11:34:47;;;;;;;6.43;2.83;;;;;;;;;;4925200;29;20060;-92
2023/09/06 11:37:16;;;;;;;4.28;2.50;;;;;;;;;;4929642;29;20569;-89
2023/09/06 11:39:46;;;;;;;6.13;3.25;;;;;;;;;;4925979;29;20047;-88
2023/09/06 11:42:16;;;;;;;4.68;2.58;;;;;;;;;;4920619;29;20051;-88
2023/09/06 11:44:49;;;;;;;8.63;2.95;;;;;;;;;;4927603;29;20059;-88
2023/09/06 11:47:18;;;;;;;4.53;2.80;;;;;;;;;;4922366;29;20441;-90
2023/09/06 11:49:49;;;;;;;4.55;2.78;;;;;;;;;;4926349;29;20263;-89
2023/09/06 11:52:19;;;;;;;4.70;2.90;;;;;;;;;;4926188;29;20610;-88
2023/09/06 11:54:50;;;;;;;6.60;3.00;;;;;;;;;;4923691;29;20048;-91
2023/09/06 11:57:23;;;;;;;4.47;2.80;;;;;;;;;;4925964;29;20493;-93
2023/09/06 11:59:58;;;;;;;4.35;2.75;;;;;;;;;;4924792;29;20501;-93
2023/09/06 12:02:30;;;;;;;3.55;2.60;;;;;;;;;;4923479;29;20048;-88
2023/09/06 12:05:01;;;;;;;3.83;2.88;;;;;;;;;;4921315;29;20047;-90
2023/09/06 12:07:31;;;;;;;3.97;2.72;;;;;;;;;;4917898;29;20055;-89
2023/09/06 12:10:00;;;;;;;4.18;2.60;;;;;;;;;;4920584;29;20394;-91
2023/09/06 12:12:29;;;;;;;4.50;2.30;;;;;;;;;;4917918;29;20047;-91
2023/09/06 12:14:59;;;;;;;5.75;2.92;;;;;;;;;;4921816;29;20142;-88
2023/09/06 12:17:29;;;;;;;3.78;2.45;;;;;;;;;;4921976;29;20068;-88
2023/09/06 12:19:59;;;;;;;4.07;2.28;;;;;;;;;;4920503;29;20052;-88
2023/09/06 12:22:27;;;;;;;2.65;2.05;;;;;;;;;;4924279;29;20224;-88
2023/09/06 12:24:56;;;;;;;4.35;2.15;;;;;;;;;;4924052;29;20052;-87
2023/09/06 12:27:25;;;;;;;4.15;2.47;;;;;;;;;;4921740;29;20044;-88
2023/09/06 12:29:53;;;;;;;3.40;2.20;;;;;;;;;;4924911;29;20051;-90
2023/09/06 12:32:23;;;;;;;3.97;2.65;;;;;;;;;;4924684;29;20497;-87
2023/09/06 12:34:52;;;;;;;5.40;2.20;;;;;;;;;;4925275;29;20044;-88
2023/09/06 12:37:21;;;;;;;3.58;1.88;;;;;;;;;;4923118;29;20040;-90
2023/09/06 12:39:49;;;;;;;4.30;3.17;;;;;;;;;;4924274;29;20047;-88
2023/09/06 12:42:18;;;;;;;6.07;2.10;;;;;;;;;;4929561;29;20527;-87
2023/09/06 12:44:47;;;;;;;3.33;2.20;;;;;;;;;;4930411;29;20062;-87
2023/09/06 12:47:17;;;;;;;2.80;2.00;;;;;;;;;;4928977;29;20053;-89
2023/09/06 12:49:47;;;;;;;6.93;2.10;;;;;;;;;;4924141;29;20047;-90
2023/09/06 12:52:20;;;;;;;3.47;2.08;;;;;;;;;;4930386;29;20043;-90
2023/09/06 12:54:48;;;;;;;2.92;2.10;;;;;;;;;;4927778;29;20545;-87
2023/09/06 12:57:17;;;;;;;3.28;2.03;;;;;;;;;;4927182;29;20071;-86
2023/09/06 12:59:46;;;;;;;3.75;2.38;;;;;;;;;;4926681;29;20126;-87
2023/09/06 13:02:14;;;;;;;3.25;2.20;;;;;;;;;;4927751;29;20040;-89
2023/09/06 13:04:43;;;;;;;3.00;2.38;;;;;;;;;;4924434;29;20126;-86
2023/09/06 13:07:13;;;;;;;2.13;1.83;;;;;;;;;;4928192;29;20040;-88
2023/09/06 13:09:41;;;;;;;4.72;1.92;;;;;;;;;;4924976;29;20083;-89
2023/09/06 13:12:10;;;;;;;3.55;2.55;;;;;;;;;;4926923;29;20082;-88
2023/09/06 13:14:39;;;;;;;3.42;2.25;;;;;;;;;;4925921;29;20052;-88
2023/09/06 13:17:07;;;;;;;3.55;2.28;;;;;;;;;;4924802;29;20051;-88
2023/09/06 13:19:36;;;;;;;3.55;2.13;;;;;;;;;;4927518;29;20064;-88
2023/09/06 13:22:04;;;;;;;2.85;1.90;;;;;;;;;;4929777;29;20058;-87
2023/09/06 13:24:34;;;;;;;2.88;1.95;;;;;;;;;;4929342;29;21550;-88
2023/09/06 13:27:04;;;;;;;3.90;2.30;;;;;;;;;;4927557;29;20490;-87
2023/09/06 13:29:35;;;;;;;2.40;1.70;;;;;;;;;;4925647;29;20051;-88
2023/09/06 13:32:04;;;;;;;6.13;2.28;;;;;;;;;;4925876;29;20429;-91
2023/09/06 13:34:33;;;;;;;3.05;2.20;;;;;;;;;;4928224;29;20051;-88
2023/09/06 13:37:01;;;;;;;3.38;2.08;;;;;;;;;;4927463;29;20078;-88
2023/09/06 13:39:30;;;;;;;4.07;2.13;;;;;;;;;;4927775;29;20441;-91
2023/09/06 13:42:00;;;;;;;4.63;2.58;;;;;;;;;;4925825;29;20567;-89
2023/09/06 13:44:33;;;;;;;3.22;1.73;;;;;;;;;;4925744;29;20058;-90
2023/09/06 13:47:02;;;;;;;5.22;2.13;;;;;;;;;;4924948;29;20067;-89
2023/09/06 13:49:30;;;;;;;2.15;1.75;;;;;;;;;;4925674;29;20490;-87
2023/09/06 13:51:59;;;;;;;2.40;1.55;;;;;;;;;;4925329;29;20103;-88
2023/09/06 13:54:27;;;;;;;3.00;2.05;;;;;;;;;;4927333;29;20047;-87
2023/09/06 13:56:56;;;;;;;2.28;1.77;;;;;;;;;;4927996;29;20497;-89
2023/09/06 13:59:26;;;;;;;6.05;2.13;;;;;;;;;;4926349;29;20521;-89
2023/09/06 14:01:54;;;;;;;2.42;1.80;;;;;;;;;;4927100;29;20501;-89
2023/09/06 14:04:23;;;;;;;2.90;2.10;;;;;;;;;;4921163;29;20055;-88
2023/09/06 14:06:54;;;;;;;2.97;1.70;;;;;;;;;;4920395;29;20058;-88
2023/09/06 14:09:23;;;;;;;3.15;1.70;;;;;;;;;;4927055;29;20054;-89
2023/09/06 14:11:51;;;;;;;2.17;1.60;;;;;;;;;;4909376;29;20052;-89
2023/09/06 14:14:24;;;;;;;2.97;1.90;;;;;;;;;;4902055;29;20482;-89
2023/09/06 14:16:54;;;;;;;3.10;1.85;;;;;;;;;;4912434;29;20052;-89
2023/09/06 14:19:24;;;;;;;3.53;2.00;;;;;;;;;;4907288;29;20052;-89
2023/09/06 14:21:53;;;;;;;2.95;2.10;;;;;;;;;;4926627;29;20138;-92
2023/09/06 14:24:21;;;;;;;4.82;2.30;;;;;;;;;;4925399;29;21233;-91
2023/09/06 14:26:50;;;;;;;3.53;2.20;;;;;;;;;;4928667;29;20055;-89
2023/09/06 14:29:18;;;;;;;2.75;1.90;;;;;;;;;;4922130;29;20425;-89
2023/09/06 14:31:47;;;;;;;4.93;2.20;;;;;;;;;;4923364;29;20074;-89
2023/09/06 14:34:17;;;;;;;3.83;2.10;;;;;;;;;;4928168;29;20466;-90
2023/09/06 14:36:46;;;;;;;3.53;2.28;;;;;;;;;;4927901;29;20516;-89
2023/09/06 14:39:15;;;;;;;2.33;1.65;;;;;;;;;;4925447;29;20267;-91
2023/09/06 14:41:43;;;;;;;3.03;2.00;;;;;;;;;;4924131;29;20067;-88
2023/09/06 14:44:15;;;;;;;2.42;1.90;;;;;;;;;;4926069;29;20054;-91
2023/09/06 14:46:45;;;;;;;3.15;1.83;;;;;;;;;;4920153;29;20052;-90
2023/09/06 14:49:13;;;;;;;2.75;1.73;;;;;;;;;;4926894;29;20062;-88
2023/09/06 14:51:43;;;;;;;2.15;1.65;;;;;;;;;;4927729;29;20067;-90
2023/09/06 14:54:11;;;;;;;3.20;1.70;;;;;;;;;;4926431;29;20090;-88
2023/09/06 14:56:43;;;;;;;3.25;1.77;;;;;;;;;;4925325;29;20059;-89